Time;durP1;ratioP1;P1;durP2;ratioP2;P2;SDS_P1;SDS_P2;PMS_P1;PMS_P2;Temp;Humidity;BMP_temperature;BMP_pressure;BME280_temperature;BME280_humidity;BME280_pressure;Samples;Min_cycle;Max_cycle;Signal;HPM_P1;HPM_P2
2023/03/30 00:01:10;;;;;;;9.02;5.25;;;;;;;24.04;33.93;100129.09;4359009;32;33779;-68
2023/03/30 00:03:42;;;;;;;7.78;5.50;;;;;;;24.02;33.97;100135.84;4347220;32;34015;-68
2023/03/30 00:06:10;;;;;;;9.68;5.87;;;;;;;24.03;34.02;100132.88;4335190;32;34330;-68
2023/03/30 00:08:37;;;;;;;8.68;5.60;;;;;;;24.01;34.02;100118.63;4359282;32;33536;-68
2023/03/30 00:11:07;;;;;;;8.65;5.55;;;;;;;24.01;34.06;100126.78;4346645;32;34676;-68
2023/03/30 00:13:35;;;;;;;9.38;5.47;;;;;;;24.01;34.08;100121.34;4322640;32;33008;-68
2023/03/30 00:16:03;;;;;;;7.12;4.70;;;;;;;24.01;34.07;100120.50;4334694;32;34706;-68
2023/03/30 00:18:33;;;;;;;6.75;4.93;;;;;;;23.99;34.06;100125.37;4334594;32;33620;-68
2023/03/30 00:21:03;;;;;;;7.15;5.05;;;;;;;23.99;34.07;100117.19;4358880;32;33641;-68
2023/03/30 00:23:32;;;;;;;7.20;4.95;;;;;;;23.99;34.08;100111.72;4361346;32;34923;-68
2023/03/30 00:25:59;;;;;;;7.22;5.37;;;;;;;23.98;34.09;100115.53;4348721;32;34139;-69
2023/03/30 00:28:29;;;;;;;8.20;5.87;;;;;;;23.96;34.11;100121.19;4349234;32;33640;-68
2023/03/30 00:30:57;;;;;;;7.10;4.72;;;;;;;23.95;34.14;100114.06;4349081;32;33979;-68
2023/03/30 00:33:25;;;;;;;6.47;4.57;;;;;;;23.95;34.19;100111.34;4348731;32;34778;-68
2023/03/30 00:36:08;;;;;;;7.97;5.35;;;;;;;23.95;34.22;100110.50;4350624;32;33703;-68
2023/03/30 00:38:36;;;;;;;7.37;5.00;;;;;;;23.94;34.22;100104.22;4336514;32;33540;-68
2023/03/30 00:41:04;;;;;;;8.20;5.20;;;;;;;23.94;34.25;100101.50;4348633;32;34777;-68
2023/03/30 00:43:32;;;;;;;6.87;4.95;;;;;;;23.92;34.26;100099.00;4336860;32;34824;-68
2023/03/30 00:46:00;;;;;;;6.68;4.82;;;;;;;23.92;34.30;100092.69;4336379;32;32552;-68
2023/03/30 00:48:33;;;;;;;7.00;4.75;;;;;;;23.92;34.29;100095.41;4348595;32;33749;-68
2023/03/30 00:51:08;;;;;;;8.05;5.57;;;;;;;23.91;34.27;100091.03;4349261;32;33962;-68
2023/03/30 00:53:57;;;;;;;7.47;4.78;;;;;;;23.89;34.31;100091.25;4361150;32;34748;-68
2023/03/30 00:56:26;;;;;;;7.65;5.45;;;;;;;23.88;34.30;100084.16;4338349;32;32988;-68
2023/03/30 00:58:54;;;;;;;6.62;4.43;;;;;;;23.88;34.31;100080.59;4337761;32;32857;-68
2023/03/30 01:01:27;;;;;;;9.25;5.20;;;;;;;23.88;34.33;100084.16;4363569;32;33538;-68
2023/03/30 01:03:58;;;;;;;7.78;4.80;;;;;;;23.88;34.31;100075.16;4351466;32;33007;-68
2023/03/30 01:06:28;;;;;;;7.57;4.57;;;;;;;23.86;34.31;100078.06;4351030;32;34877;-68
2023/03/30 01:08:59;;;;;;;6.43;4.47;;;;;;;23.86;34.31;100074.53;4339523;32;33390;-68
2023/03/30 01:11:27;;;;;;;7.87;4.97;;;;;;;23.86;34.32;100063.63;4364144;32;33963;-68
2023/03/30 01:14:00;;;;;;;8.40;4.75;;;;;;;23.85;34.33;100062.78;4376961;32;33587;-68
2023/03/30 01:16:34;;;;;;;7.65;4.55;;;;;;;23.85;34.32;100056.50;4339167;32;33147;-68
2023/03/30 01:19:24;;;;;;;11.18;4.37;;;;;;;23.84;34.32;100055.69;4363246;32;33702;-68
2023/03/30 01:22:11;;;;;;;6.85;4.47;;;;;;;23.85;34.29;100046.44;4350977;32;34333;-68
2023/03/30 01:25:02;;;;;;;7.10;4.80;;;;;;;23.83;34.31;100048.56;4351376;32;34459;-68
2023/03/30 01:28:07;;;;;;;6.25;4.18;;;;;;;23.84;34.36;100043.94;4376988;32;34056;-68
2023/03/30 01:31:11;;;;;;;7.07;4.62;;;;;;;23.83;34.40;100036.84;4363308;32;32427;-68
2023/03/30 01:34:16;;;;;;;7.50;4.87;;;;;;;23.81;34.43;100033.47;4363322;32;34181;-68
2023/03/30 01:36:53;;;;;;;6.35;4.45;;;;;;;23.79;34.47;100041.88;4376883;32;33660;-68
2023/03/30 01:39:32;;;;;;;8.70;4.78;;;;;;;23.75;34.54;100032.50;4376905;32;34568;-68
2023/03/30 01:42:08;;;;;;;7.30;4.78;;;;;;;23.74;34.54;100039.00;4350874;32;32569;-68
2023/03/30 01:44:50;;;;;;;7.28;4.90;;;;;;;23.74;34.53;100032.72;4351485;32;33881;-68
2023/03/30 01:47:24;;;;;;;10.82;5.15;;;;;;;23.76;34.58;100036.03;4338608;32;33508;-68
2023/03/30 01:50:05;;;;;;;9.82;4.80;;;;;;;23.74;34.59;100027.28;4363222;32;34871;-68
2023/03/30 01:52:41;;;;;;;7.50;4.85;;;;;;;23.75;34.56;100031.66;4351685;32;33569;-68
2023/03/30 01:55:10;;;;;;;8.65;4.55;;;;;;;23.74;34.56;100035.44;4350814;32;32558;-68
2023/03/30 01:58:02;;;;;;;6.57;4.20;;;;;;;23.73;34.56;100037.31;4363139;32;33803;-68
2023/03/30 02:00:30;;;;;;;7.00;4.53;;;;;;;23.73;34.56;100034.59;4352071;32;33147;-68
2023/03/30 02:03:23;;;;;;;7.87;4.55;;;;;;;23.72;34.58;100032.09;4335896;32;33610;-68
2023/03/30 02:05:52;;;;;;;12.00;4.62;;;;;;;23.72;34.55;100023.91;4344774;32;33569;-68
2023/03/30 02:08:22;;;;;;;9.37;5.00;;;;;;;23.70;34.59;100029.59;4336297;32;34925;-68
2023/03/30 02:10:50;;;;;;;10.23;4.82;;;;;;;23.69;34.57;100025.22;4323992;32;34371;-68
2023/03/30 02:13:18;;;;;;;6.72;4.22;;;;;;;23.68;34.60;100018.06;4335919;32;33823;-68
2023/03/30 02:15:49;;;;;;;7.18;4.20;;;;;;;23.67;34.61;100019.97;4348620;32;33887;-68
2023/03/30 02:18:18;;;;;;;;;;;;;;;23.67;34.63;100019.13;4336383;32;33794;-68
2023/03/30 02:20:48;;;;;;;6.50;4.40;;;;;;;23.75;34.45;100007.13;4348347;32;34318;-68
2023/03/30 02:23:19;;;;;;;7.07;4.57;;;;;;;23.68;34.58;100001.72;4324037;32;33434;-68
2023/03/30 02:25:47;;;;;;;7.45;4.45;;;;;;;23.66;34.63;99999.25;4348003;32;34008;-68
2023/03/30 02:28:17;;;;;;;6.40;4.15;;;;;;;23.64;34.68;100001.38;4361580;32;33895;-67
2023/03/30 02:30:44;;;;;;;6.72;4.47;;;;;;;23.64;34.69;99995.91;4335680;32;33411;-67
2023/03/30 02:33:34;;;;;;;6.25;3.90;;;;;;;23.62;34.71;100006.16;4348019;32;33553;-67
2023/03/30 02:36:20;;;;;;;6.53;3.90;;;;;;;23.65;34.71;100013.09;4335713;32;32207;-68
2023/03/30 02:38:57;;;;;;;7.15;4.45;;;;;;;23.62;34.74;99999.88;4361819;32;34817;-68
2023/03/30 02:41:59;;;;;;;6.35;4.25;;;;;;;23.60;34.79;100005.56;4335971;32;33803;-67
2023/03/30 02:44:33;;;;;;;6.68;4.22;;;;;;;23.60;34.79;100013.72;4361400;32;33772;-68
2023/03/30 02:47:05;;;;;;;7.15;4.50;;;;;;;23.59;34.81;100009.31;4346464;32;32738;-68
2023/03/30 02:49:52;;;;;;;6.85;4.62;;;;;;;23.57;34.83;99995.09;4323559;32;32620;-68
2023/03/30 02:52:41;;;;;;;6.22;4.10;;;;;;;23.59;34.81;99998.41;4335414;32;33309;-68
2023/03/30 02:55:22;;;;;;;7.00;4.72;;;;;;;23.57;34.85;100002.44;4348345;32;34165;-68
2023/03/30 02:58:02;;;;;;;6.10;3.90;;;;;;;23.57;34.83;100003.28;4335795;32;32522;-68
2023/03/30 03:00:40;;;;;;;8.52;4.68;;;;;;;23.56;34.90;100000.78;4348094;32;33535;-68
2023/03/30 03:03:33;;;;;;;6.18;4.15;;;;;;;23.56;34.90;100008.94;4363252;32;34323;-68
2023/03/30 03:06:01;;;;;;;7.70;3.80;;;;;;;23.58;34.85;100018.53;4354343;32;33294;-68
2023/03/30 03:08:32;;;;;;;6.12;4.00;;;;;;;23.56;34.88;100011.69;4350335;32;33878;-68
2023/03/30 03:11:00;;;;;;;6.70;3.97;;;;;;;23.54;34.90;100003.69;4350319;32;33011;-68
2023/03/30 03:13:29;;;;;;;7.35;4.05;;;;;;;23.54;34.89;100000.16;4362266;32;33180;-68
2023/03/30 03:15:57;;;;;;;5.85;3.85;;;;;;;23.54;34.91;100011.03;4376116;32;33074;-68
2023/03/30 03:18:25;;;;;;;6.40;4.07;;;;;;;23.52;34.93;100011.28;4362875;32;33471;-68
2023/03/30 03:20:53;;;;;;;6.45;4.25;;;;;;;23.54;34.92;100011.03;4362314;32;33909;-68
2023/03/30 03:23:22;;;;;;;6.72;4.37;;;;;;;23.52;34.92;100016.72;4362427;32;34025;-68
2023/03/30 03:25:50;;;;;;;8.73;4.47;;;;;;;23.52;34.96;100019.44;4345026;32;32332;-68
2023/03/30 03:28:18;;;;;;;7.32;4.55;;;;;;;23.52;34.97;100008.56;4332867;33;33917;-68
2023/03/30 03:30:47;;;;;;;5.47;3.78;;;;;;;23.51;34.99;100015.06;4344782;33;33934;-68
2023/03/30 03:33:15;;;;;;;6.72;4.40;;;;;;;23.50;35.00;100018.84;4344969;33;33909;-68
2023/03/30 03:35:44;;;;;;;6.18;3.90;;;;;;;23.50;35.00;100020.72;4332860;33;33358;-68
2023/03/30 03:38:12;;;;;;;7.65;4.43;;;;;;;23.51;35.02;100023.22;4320519;33;32998;-68
2023/03/30 03:40:40;;;;;;;6.12;3.90;;;;;;;23.50;35.05;100021.56;4320333;33;33008;-68
2023/03/30 03:43:08;;;;;;;5.62;3.67;;;;;;;23.48;35.07;100026.38;4344641;33;33369;-68
2023/03/30 03:45:36;;;;;;;6.40;3.78;;;;;;;23.48;35.10;100022.84;4332432;33;32593;-68
2023/03/30 03:48:03;;;;;;;6.28;3.95;;;;;;;23.48;35.10;100015.50;4345950;33;33850;-68
2023/03/30 03:50:31;;;;;;;6.37;4.12;;;;;;;23.48;35.11;100011.94;4344646;33;33227;-68
2023/03/30 03:52:59;;;;;;;5.45;3.78;;;;;;;23.47;35.13;100010.28;4332093;33;34332;-68
2023/03/30 03:55:28;;;;;;;8.48;3.92;;;;;;;23.47;35.14;100005.66;4344274;33;32949;-68
2023/03/30 03:57:56;;;;;;;9.33;4.13;;;;;;;23.46;35.14;100005.91;4345497;33;34626;-68
2023/03/30 04:00:25;;;;;;;8.80;4.30;;;;;;;23.47;35.14;100002.94;4336005;33;34251;-66
2023/03/30 04:02:53;;;;;;;8.55;4.53;;;;;;;23.47;35.14;99996.66;4332623;33;34747;-68
2023/03/30 04:05:21;;;;;;;10.55;4.00;;;;;;;23.49;34.83;99991.81;4307474;33;32525;-66
2023/03/30 04:07:48;;;;;;;9.05;4.12;;;;;;;23.45;34.28;99985.97;4319527;33;33913;-65
2023/03/30 04:10:16;;;;;;;9.75;4.18;;;;;;;23.44;34.04;99984.31;4331719;33;33856;-68
2023/03/30 04:12:44;;;;;;;8.20;4.50;;;;;;;23.41;34.03;99979.31;4319507;33;33037;-65
2023/03/30 04:15:12;;;;;;;6.28;3.80;;;;;;;23.38;34.00;99980.59;4331736;33;32463;-65
2023/03/30 04:17:40;;;;;;;12.25;4.32;;;;;;;23.38;33.99;99979.75;4319665;33;33864;-69
2023/03/30 04:20:11;;;;;;;8.35;4.32;;;;;;;23.36;33.97;99976.41;4308395;33;34113;-65
2023/03/30 04:22:40;;;;;;;7.62;4.00;;;;;;;23.35;33.96;99972.03;4331655;33;33939;-68
2023/03/30 04:25:14;;;;;;;8.45;3.75;;;;;;;23.33;33.92;99971.44;4342724;33;34579;-67
2023/03/30 04:27:43;;;;;;;8.10;3.50;;;;;;;23.31;33.90;99978.97;4345870;33;33923;-65
2023/03/30 04:30:12;;;;;;;7.32;3.80;;;;;;;23.29;33.86;99998.25;4344308;33;34757;-66
2023/03/30 04:32:41;;;;;;;;;;;;;;;23.27;33.85;99989.50;4332666;33;33880;-66
2023/03/30 04:35:10;;;;;;;8.50;4.28;;;;;;;23.35;33.72;99986.47;4344524;33;32419;-66
2023/03/30 04:37:40;;;;;;;8.55;3.75;;;;;;;23.26;33.74;99982.34;4332266;33;34359;-66
2023/03/30 04:40:09;;;;;;;7.35;3.72;;;;;;;23.24;33.79;99983.66;4320481;33;33825;-65
2023/03/30 04:42:38;;;;;;;6.18;3.65;;;;;;;23.23;33.78;99981.97;4344504;33;34282;-69
2023/03/30 04:45:06;;;;;;;6.55;3.60;;;;;;;23.21;33.77;99970.47;4333927;33;32938;-65
2023/03/30 04:47:35;;;;;;;6.72;3.60;;;;;;;23.19;33.77;99970.69;4334112;33;33145;-68
2023/03/30 04:50:03;;;;;;;6.47;3.95;;;;;;;23.17;33.76;99967.34;4346389;33;34785;-65
2023/03/30 04:52:33;;;;;;;7.43;3.80;;;;;;;23.17;33.73;99970.06;4346471;33;33123;-66
2023/03/30 04:55:03;;;;;;;6.40;3.42;;;;;;;23.17;33.70;99965.47;4346191;33;33405;-65
2023/03/30 04:57:32;;;;;;;7.90;3.85;;;;;;;23.15;33.68;99964.03;4334227;33;33625;-66
2023/03/30 05:00:00;;;;;;;5.85;3.70;;;;;;;23.14;33.68;99960.47;4354014;32;33818;-66
2023/03/30 05:02:28;;;;;;;7.30;3.45;;;;;;;23.13;33.66;99957.97;4324925;32;32992;-66
2023/03/30 05:04:58;;;;;;;6.70;3.70;;;;;;;23.12;33.65;99959.00;4348483;32;32644;-66
2023/03/30 05:07:26;;;;;;;7.40;3.72;;;;;;;23.12;33.62;99959.00;4361282;32;33835;-66
2023/03/30 05:09:54;;;;;;;6.47;3.62;;;;;;;23.10;33.64;99964.69;4347969;32;33627;-66
2023/03/30 05:12:22;;;;;;;9.30;4.07;;;;;;;23.09;33.62;99971.19;4360732;32;34102;-65
2023/03/30 05:14:50;;;;;;;6.00;3.42;;;;;;;23.08;33.61;99960.50;4362131;32;34403;-66
2023/03/30 05:17:18;;;;;;;6.90;3.45;;;;;;;23.08;33.58;99963.22;4361016;32;34302;-65
2023/03/30 05:19:48;;;;;;;6.75;3.15;;;;;;;23.07;33.56;99965.09;4348669;32;33282;-66
2023/03/30 05:22:17;;;;;;;6.55;3.62;;;;;;;23.07;33.56;99967.84;4360746;32;34795;-66
2023/03/30 05:24:45;;;;;;;6.00;3.58;;;;;;;23.05;33.57;99964.50;4360846;32;33656;-65
2023/03/30 05:27:12;;;;;;;6.35;3.47;;;;;;;23.06;33.55;99976.22;4336724;32;33380;-66
2023/03/30 05:29:40;;;;;;;5.95;3.33;;;;;;;23.04;33.53;99965.56;4348470;32;34671;-66
2023/03/30 05:32:10;;;;;;;5.62;3.67;;;;;;;23.03;33.54;99971.22;4324790;32;32938;-66
2023/03/30 05:34:38;;;;;;;5.70;3.45;;;;;;;23.04;33.49;99964.75;4362176;32;34067;-65
2023/03/30 05:37:07;;;;;;;5.90;3.30;;;;;;;23.02;33.51;99964.09;4360948;32;33943;-66
2023/03/30 05:39:36;;;;;;;6.12;3.40;;;;;;;23.01;33.50;99960.56;4348812;32;33877;-65
2023/03/30 05:42:04;;;;;;;5.15;3.47;;;;;;;23.02;33.48;99958.66;4348756;32;34245;-66
2023/03/30 05:44:32;;;;;;;7.70;3.80;;;;;;;23.00;33.47;99956.19;4336313;32;33429;-66
2023/03/30 05:47:02;;;;;;;6.37;3.30;;;;;;;22.99;33.47;99946.34;4360382;32;32890;-66
2023/03/30 05:49:30;;;;;;;5.62;3.80;;;;;;;22.98;33.47;99952.81;4336391;32;33442;-66
2023/03/30 05:52:00;;;;;;;7.25;3.58;;;;;;;22.98;33.46;99955.53;4360914;32;34833;-65
2023/03/30 05:54:28;;;;;;;6.18;3.12;;;;;;;22.98;33.44;99973.75;4360472;32;33577;-66
2023/03/30 05:56:56;;;;;;;5.65;3.50;;;;;;;22.97;33.43;99972.09;4348426;32;32881;-65
2023/03/30 05:59:24;;;;;;;5.43;3.50;;;;;;;22.96;33.42;99971.28;4356357;32;33832;-66
2023/03/30 06:01:52;;;;;;;6.53;3.58;;;;;;;22.97;33.41;99967.50;4333349;33;34787;-66
2023/03/30 06:04:20;;;;;;;8.77;3.42;;;;;;;22.96;33.41;99965.00;4345691;33;32336;-66
2023/03/30 06:06:48;;;;;;;7.35;3.78;;;;;;;22.94;33.40;99965.19;4347117;33;33827;-65
2023/03/30 06:09:16;;;;;;;7.68;4.15;;;;;;;22.95;33.39;99960.63;4345882;33;33812;-66
2023/03/30 06:11:44;;;;;;;4.97;3.22;;;;;;;22.94;33.40;99962.47;4346883;33;34182;-66
2023/03/30 06:14:12;;;;;;;5.72;3.30;;;;;;;22.93;33.41;99955.37;4345965;33;32755;-68
2023/03/30 06:16:43;;;;;;;5.60;3.50;;;;;;;22.93;33.39;99952.66;4345851;33;33907;-66
2023/03/30 06:19:14;;;;;;;6.45;3.37;;;;;;;22.92;33.39;99951.00;4333891;33;33294;-68
2023/03/30 06:21:41;;;;;;;6.10;3.30;;;;;;;22.92;33.38;99949.09;4345679;33;34653;-66
2023/03/30 06:24:11;;;;;;;6.80;3.37;;;;;;;22.92;33.38;99942.81;4345387;33;33130;-65
2023/03/30 06:26:40;;;;;;;6.87;3.87;;;;;;;22.90;33.39;99940.34;4345594;33;32725;-67
2023/03/30 06:29:08;;;;;;;5.25;3.17;;;;;;;22.89;33.40;99935.09;4333223;33;34776;-66
2023/03/30 06:31:36;;;;;;;5.53;3.20;;;;;;;22.89;33.40;99932.37;4345831;33;34143;-67
2023/03/30 06:34:06;;;;;;;6.12;3.30;;;;;;;22.90;33.41;99939.50;4345878;33;34304;-67
2023/03/30 06:36:34;;;;;;;5.43;3.30;;;;;;;22.89;33.42;99930.47;4308989;33;33008;-65
2023/03/30 06:39:13;;;;;;;6.55;3.72;;;;;;;22.90;33.41;99923.19;4323502;33;33460;-70
2023/03/30 06:41:41;;;;;;;5.82;3.12;;;;;;;22.91;33.39;99920.22;4333071;33;33860;-65
2023/03/30 06:44:14;;;;;;;5.68;3.22;;;;;;;22.92;33.41;99921.06;4310659;33;32736;-65
2023/03/30 06:46:45;;;;;;;6.25;3.65;;;;;;;22.93;33.40;99920.00;4345404;33;32893;-66
2023/03/30 06:49:13;;;;;;;5.35;3.30;;;;;;;22.93;33.41;99925.44;4333354;33;34678;-65
2023/03/30 06:51:46;;;;;;;5.28;3.30;;;;;;;22.94;33.40;99932.53;4333900;33;34048;-66
2023/03/30 06:54:13;;;;;;;5.45;3.12;;;;;;;22.96;33.39;99926.91;4333249;33;32520;-64
2023/03/30 06:56:42;;;;;;;6.12;3.08;;;;;;;22.96;33.36;99933.19;4336936;33;33920;-66
2023/03/30 06:59:09;;;;;;;5.80;3.10;;;;;;;22.97;33.35;99931.28;4349089;32;33733;-66
2023/03/30 07:01:38;;;;;;;5.80;3.75;;;;;;;22.97;33.34;99929.38;4347879;32;33892;-66
2023/03/30 07:04:08;;;;;;;6.28;3.60;;;;;;;22.98;33.30;99936.50;4324064;32;32486;-68
2023/03/30 07:06:36;;;;;;;5.45;3.12;;;;;;;22.99;33.27;99940.91;4347947;32;32800;-67
2023/03/30 07:09:04;;;;;;;5.75;2.97;;;;;;;23.00;33.28;99950.72;4360139;32;33689;-67
2023/03/30 07:11:32;;;;;;;5.37;3.45;;;;;;;23.00;33.28;99956.19;4347646;32;33190;-67
2023/03/30 07:14:01;;;;;;;4.87;2.70;;;;;;;23.02;33.24;99939.63;4359970;32;33704;-67
2023/03/30 07:16:29;;;;;;;4.93;3.17;;;;;;;23.01;33.25;99937.97;4347585;32;33483;-66
2023/03/30 07:18:57;;;;;;;5.47;3.10;;;;;;;23.02;33.24;99932.28;4361086;32;34664;-67
2023/03/30 07:21:24;;;;;;;5.53;3.45;;;;;;;23.02;33.21;99935.00;4347956;32;34692;-67
2023/03/30 07:23:52;;;;;;;6.60;3.30;;;;;;;23.04;33.19;99948.41;4359576;32;34294;-66
2023/03/30 07:26:22;;;;;;;5.65;3.10;;;;;;;23.03;33.17;99950.28;4359913;32;34171;-66
2023/03/30 07:28:51;;;;;;;5.00;3.15;;;;;;;23.04;33.16;99949.25;4345276;32;33302;-69
2023/03/30 07:31:20;;;;;;;5.03;3.00;;;;;;;23.06;33.13;99951.72;4359817;32;34519;-67
2023/03/30 07:33:48;;;;;;;6.20;3.53;;;;;;;23.07;33.12;99956.13;4361177;32;33524;-66
2023/03/30 07:36:17;;;;;;;5.90;3.25;;;;;;;23.07;33.11;99937.06;4346575;33;34574;-66
2023/03/30 07:38:46;;;;;;;5.30;3.20;;;;;;;23.07;33.10;99937.91;4348288;32;33966;-69
2023/03/30 07:41:14;;;;;;;4.97;2.85;;;;;;;23.09;33.09;99932.25;4362647;32;33600;-66
2023/03/30 07:43:42;;;;;;;5.25;3.08;;;;;;;23.08;33.11;99928.69;4357192;32;33361;-67
2023/03/30 07:46:13;;;;;;;5.95;3.00;;;;;;;23.09;33.10;99926.81;4357275;32;34457;-65
2023/03/30 07:48:41;;;;;;;4.72;2.87;;;;;;;23.10;33.14;99929.28;4349878;32;34634;-66
2023/03/30 07:51:11;;;;;;;5.53;3.00;;;;;;;23.11;33.15;99952.72;4362563;32;34175;-66
2023/03/30 07:53:41;;;;;;;5.07;3.10;;;;;;;23.12;33.18;99948.13;4362565;32;33414;-65
2023/03/30 07:56:09;;;;;;;4.97;3.00;;;;;;;23.13;33.16;99955.25;4361622;32;33793;-68
2023/03/30 07:58:38;;;;;;;6.53;3.17;;;;;;;23.13;33.16;99949.81;4361363;32;34374;-66
2023/03/30 08:01:07;;;;;;;5.03;2.95;;;;;;;23.13;33.15;99939.75;4346811;32;33181;-66
2023/03/30 08:03:36;;;;;;;;;;;;;;;23.14;33.21;99926.97;4335975;32;33692;-68
2023/03/30 08:06:04;;;;;;;4.50;2.62;;;;;;;23.23;33.05;99928.38;4361129;32;34231;-65
2023/03/30 08:08:32;;;;;;;6.00;3.37;;;;;;;23.19;33.15;99920.88;4349427;32;33214;-67
2023/03/30 08:11:01;;;;;;;6.37;3.00;;;;;;;23.15;33.20;99925.91;4349418;32;33828;-65
2023/03/30 08:13:48;;;;;;;5.00;3.20;;;;;;;23.15;33.22;99921.31;4362474;32;34956;-67
2023/03/30 08:16:15;;;;;;;5.35;3.33;;;;;;;23.16;33.22;99933.03;4336948;32;32937;-65
2023/03/30 08:18:46;;;;;;;5.40;3.03;;;;;;;23.16;33.28;99924.84;4336786;32;33913;-69
2023/03/30 08:21:13;;;;;;;;;;;;;;;23.17;33.26;99923.78;4361474;32;33722;-67
2023/03/30 08:23:41;;;;;;;6.07;2.83;;;;;;;23.26;33.11;99916.19;4350641;32;32591;-66
2023/03/30 08:26:08;;;;;;;7.47;3.28;;;;;;;23.20;33.22;99917.09;4351313;32;33094;-67
2023/03/30 08:28:36;;;;;;;5.93;3.00;;;;;;;23.19;33.32;99921.69;4351509;32;34752;-69
2023/03/30 08:31:05;;;;;;;6.25;3.28;;;;;;;23.19;33.34;99921.69;4339311;32;34284;-65
2023/03/30 08:33:33;;;;;;;8.52;3.40;;;;;;;23.19;33.36;99923.59;4339291;32;33597;-65
2023/03/30 08:36:02;;;;;;;7.35;3.22;;;;;;;23.19;33.36;99923.59;4338993;32;32854;-67
2023/03/30 08:38:30;;;;;;;6.25;3.05;;;;;;;23.19;33.37;99921.69;4339043;32;33104;-66
2023/03/30 08:40:57;;;;;;;5.80;3.10;;;;;;;23.21;33.36;99924.19;4351620;32;34115;-67
2023/03/30 08:43:47;;;;;;;6.87;3.22;;;;;;;23.21;33.36;99926.91;4351043;32;32301;-66
2023/03/30 08:46:16;;;;;;;5.87;3.33;;;;;;;23.22;33.38;99931.28;4363177;32;33085;-67
2023/03/30 08:48:44;;;;;;;6.05;3.08;;;;;;;23.23;33.35;99911.19;4339215;32;33710;-66
2023/03/30 08:51:23;;;;;;;5.60;3.05;;;;;;;23.23;33.38;99916.66;4338951;32;32721;-65
2023/03/30 08:53:54;;;;;;;5.90;3.17;;;;;;;23.24;33.36;99921.84;4347694;32;32570;-66
2023/03/30 08:56:29;;;;;;;5.75;2.75;;;;;;;23.25;33.37;99923.53;4338600;32;33875;-68
2023/03/30 08:58:57;;;;;;;4.85;2.87;;;;;;;23.26;33.35;99922.47;4348714;32;33136;-66
2023/03/30 09:01:30;;;;;;;4.18;2.60;;;;;;;23.26;33.37;99918.91;4376240;32;34082;-65
2023/03/30 09:04:22;;;;;;;5.90;3.30;;;;;;;23.27;33.37;99907.81;4363256;32;32604;-65
2023/03/30 09:06:50;;;;;;;5.30;2.87;;;;;;;23.28;33.36;99903.19;4338573;32;33498;-65
2023/03/30 09:09:20;;;;;;;5.65;3.03;;;;;;;23.27;33.38;99915.13;4351407;32;34640;-66
2023/03/30 09:11:51;;;;;;;5.90;2.92;;;;;;;23.27;33.38;99912.41;4363080;32;33871;-66
2023/03/30 09:14:53;;;;;;;6.20;2.90;;;;;;;23.29;33.35;99902.13;4339191;32;33178;-66
2023/03/30 09:17:24;;;;;;;5.65;2.97;;;;;;;23.32;33.31;99902.53;4343189;32;33622;-67
2023/03/30 09:19:57;;;;;;;5.22;2.67;;;;;;;23.30;33.31;99903.78;4351425;32;33551;-68
2023/03/30 09:22:31;;;;;;;5.22;3.00;;;;;;;23.31;33.31;99900.00;4339036;32;34083;-69
2023/03/30 09:24:59;;;;;;;4.80;2.87;;;;;;;23.31;33.32;99894.56;4339382;32;33244;-67
2023/03/30 09:27:44;;;;;;;5.47;2.90;;;;;;;23.32;33.32;99893.53;4348590;32;34687;-65
2023/03/30 09:30:17;;;;;;;5.87;2.83;;;;;;;23.33;33.30;99887.84;4354848;32;33971;-67
2023/03/30 09:32:51;;;;;;;8.10;2.95;;;;;;;23.33;33.32;99887.84;4337464;32;34244;-66
2023/03/30 09:35:23;;;;;;;6.72;3.00;;;;;;;23.33;33.35;99885.13;4337641;32;33418;-67
2023/03/30 09:37:51;;;;;;;6.78;3.25;;;;;;;23.35;33.40;99876.72;4351040;32;32967;-69
2023/03/30 09:40:29;;;;;;;4.55;2.80;;;;;;;23.35;33.45;99866.66;4363354;32;33899;-69
2023/03/30 09:43:08;;;;;;;4.97;2.65;;;;;;;23.37;33.52;99869.19;4354756;32;34611;-68
2023/03/30 09:45:36;;;;;;;;;;;;;;;23.37;33.54;99861.84;4348414;32;34287;-69
2023/03/30 09:48:05;;;;;;;5.20;2.60;;;;;;;23.46;33.42;99856.94;4348379;32;34995;-65
2023/03/30 09:50:41;;;;;;;6.90;2.78;;;;;;;23.38;33.58;99855.34;4342511;32;32736;-67
2023/03/30 09:53:28;;;;;;;5.50;2.70;;;;;;;23.37;33.62;99850.97;4327978;32;32840;-66
2023/03/30 09:56:15;;;;;;;6.68;3.10;;;;;;;23.37;33.64;99842.78;4349268;32;33474;-65
2023/03/30 09:58:43;;;;;;;6.15;2.65;;;;;;;23.37;33.65;99841.97;4341788;32;34710;-67
2023/03/30 10:01:17;;;;;;;6.90;2.83;;;;;;;23.36;33.66;99848.44;4344718;32;32944;-70
2023/03/30 10:04:03;;;;;;;6.20;3.45;;;;;;;23.36;33.68;99845.72;4350085;32;33875;-70
2023/03/30 10:06:53;;;;;;;4.60;2.62;;;;;;;23.35;33.78;99830.44;4353005;32;33593;-70
2023/03/30 10:09:22;;;;;;;7.55;2.80;;;;;;;23.34;33.86;99840.50;4352822;32;32690;-67
2023/03/30 10:11:50;;;;;;;6.65;2.60;;;;;;;23.35;33.88;99841.34;4338770;32;33695;-67
2023/03/30 10:14:24;;;;;;;5.40;2.97;;;;;;;23.34;33.89;99840.50;4350722;32;33838;-66
2023/03/30 10:16:55;;;;;;;9.20;2.95;;;;;;;23.35;33.89;99823.09;4368101;32;33352;-66
2023/03/30 10:19:23;;;;;;;6.55;3.00;;;;;;;23.33;33.93;99833.41;4336156;32;33809;-66
2023/03/30 10:21:53;;;;;;;6.53;2.92;;;;;;;23.32;33.98;99822.75;4335921;32;32986;-66
2023/03/30 10:24:22;;;;;;;;;;;;;;;23.31;34.00;99816.44;4348232;32;34104;-66
2023/03/30 10:27:16;;;;;;;6.18;3.03;;;;;;;23.39;33.81;99818.87;4335999;32;33498;-65
2023/03/30 10:29:45;;;;;;;7.07;3.20;;;;;;;23.34;33.91;99804.28;4343207;32;34714;-66
2023/03/30 10:32:20;;;;;;;7.82;3.25;;;;;;;23.29;33.94;99791.34;4335925;32;33166;-69
2023/03/30 10:34:55;;;;;;;7.65;3.30;;;;;;;23.27;33.97;99795.34;4347948;32;34092;-69
2023/03/30 10:37:40;;;;;;;9.65;3.37;;;;;;;23.26;33.94;99794.50;4336056;32;34337;-69
2023/03/30 10:40:17;;;;;;;6.43;3.30;;;;;;;23.26;33.92;99797.22;4335862;32;33436;-68
2023/03/30 10:42:47;;;;;;;7.70;3.47;;;;;;;23.24;33.89;99784.91;4348259;32;34011;-69
2023/03/30 10:45:17;;;;;;;9.80;3.53;;;;;;;23.22;33.88;99785.13;4348016;32;33805;-69
2023/03/30 10:47:53;;;;;;;;;;;;;;;23.23;33.88;99781.38;4348160;32;33276;-68
2023/03/30 10:50:40;;;;;;;11.73;7.37;;;;;;;23.31;33.69;99783.78;4348294;32;34217;-68
2023/03/30 10:53:29;;;;;;;12.70;7.37;;;;;;;23.23;32.88;99786.81;4331433;32;33262;-68
2023/03/30 10:56:06;;;;;;;12.88;7.55;;;;;;;23.17;32.21;99774.94;4376201;32;33411;-69
2023/03/30 10:58:58;;;;;;;13.68;8.30;;;;;;;23.11;31.84;99767.66;4376124;32;33669;-69
2023/03/30 11:01:41;;;;;;;12.20;8.32;;;;;;;23.07;31.48;99754.72;4347756;32;84702;-67
2023/03/30 11:04:13;;;;;;;12.63;7.68;;;;;;;23.02;31.27;99763.56;4376435;32;33671;-68
2023/03/30 11:06:53;;;;;;;10.93;7.03;;;;;;;22.97;31.65;99760.69;4352386;32;34455;-68
2023/03/30 11:09:23;;;;;;;11.80;7.53;;;;;;;22.96;31.99;99764.47;4349988;32;32697;-68
2023/03/30 11:11:53;;;;;;;9.93;6.80;;;;;;;22.95;31.96;99762.81;4362541;32;33809;-68
2023/03/30 11:14:42;;;;;;;9.15;6.25;;;;;;;22.96;32.08;99774.53;4350118;32;33044;-69
2023/03/30 11:17:15;;;;;;;11.70;5.93;;;;;;;22.96;32.15;99767.19;4352102;32;33995;-70
2023/03/30 11:19:46;;;;;;;9.25;5.40;;;;;;;23.05;32.22;99765.00;4350645;32;34336;-70
2023/03/30 11:22:16;;;;;;;11.43;5.90;;;;;;;23.16;32.26;99767.81;4350345;32;33100;-69
2023/03/30 11:24:43;;;;;;;9.38;4.72;;;;;;;23.32;32.23;99763.69;4353025;32;34360;-69
2023/03/30 11:27:21;;;;;;;9.77;4.87;;;;;;;23.44;32.24;99761.00;4347637;32;33247;-69
2023/03/30 11:29:52;;;;;;;10.05;4.60;;;;;;;23.58;32.21;99739.91;4347899;32;34362;-68
2023/03/30 11:33:05;;;;;;;8.07;4.47;;;;;;;23.70;32.19;99743.56;4335389;32;34721;-68
2023/03/30 11:35:46;;;;;;;8.93;4.05;;;;;;;23.90;32.08;99732.38;4332771;32;33820;-67
2023/03/30 11:38:38;;;;;;;8.93;4.57;;;;;;;24.03;32.03;99732.19;4347582;32;34549;-69
2023/03/30 11:41:12;;;;;;;7.15;4.35;;;;;;;24.17;31.98;99730.94;4335217;32;33144;-69
2023/03/30 11:43:40;;;;;;;6.18;3.55;;;;;;;24.28;31.92;99731.19;4335656;32;32929;-68
2023/03/30 11:46:22;;;;;;;7.10;4.12;;;;;;;24.36;31.86;99731.72;4361937;32;32925;-68
2023/03/30 11:49:04;;;;;;;6.18;3.50;;;;;;;24.47;31.80;99737.41;4375656;32;34097;-67
2023/03/30 11:52:00;;;;;;;6.85;4.20;;;;;;;24.52;31.78;99735.63;4362116;32;33710;-67
2023/03/30 11:54:46;;;;;;;6.93;4.10;;;;;;;24.62;31.71;99719.53;4375315;32;34545;-69
2023/03/30 11:57:39;;;;;;;6.78;3.80;;;;;;;24.73;31.65;99711.59;4375321;32;33923;-69